• Join FlightAware (Why Join?)
  • Login
  • US Flag 
05:14AM EDT


 

Airport Tracker/Info


-or-


 

Live Flight TrackerFlight Track Log ✈ AWE2690 ✈ 02-Sep-2013 ✈ KCLT - KIND

Flight Track Log - Related Links

Times and Time Zones

All times are in EDT time to prevent confusion due to time zone crossing. See the AWE2690 flight status page for this flight to view local times or setup timezone preferences in your user account.

Time Position Orientation Groundspeed Altitude Reporting Facility
EDT Latitude Longitude Course Direction KTS MPH feet Rate Location/Type
01:39PM 35.1869 -80.9511 13° North 176 203 1,300  Level Atlanta Center
01:40PM 35.1144 -80.9664 190° South 253 291 3,100 2,040 Climbing Atlanta Center
01:41PM 35.0914 -81.0461 251° West 270 311 5,900 2,460 Climbing Atlanta Center
01:42PM 35.1649 -81.2167 North  Level FlightAware Approximate
01:42PM 35.0928 -81.1044 272° West 270 311 7,500  Level Atlanta Center
01:43PM 35.2777 -81.1835 68° East  Level FlightAware Approximate
01:43PM 35.1197 -81.1897 291° West 279 321 8,500  Level Atlanta Center
01:44PM 35.3549 -81.0544 52° Northeast  Level FlightAware Approximate
01:44PM 35.1956 -81.2200 342° North 238 274 10,900  Level Atlanta Center
01:45PM 35.4518 -80.9564 13° North  Level FlightAware Approximate
01:45PM 35.2797 -81.1639 29° Northeast 271 312 12,100  Level Atlanta Center
01:46PM 35.3683 -81.1072 28° Northeast 326 375 14,100 1,980 Climbing Atlanta Center
01:47PM 35.4586 -81.0506 27° Northeast 347 399 16,100 1,860 Climbing Atlanta Center
01:48PM 35.5561 -81.0292 10° North 365 420 17,900 1,680 Climbing Atlanta Center
01:49PM 35.6436 -81.1025 326° Northwest 339 390 19,500 1,500 Climbing Atlanta Center
01:50PM 35.7264 -81.1711 326° Northwest 377 434 20,900 1,560 Climbing Atlanta Center
01:51PM 35.8178 -81.2422 328° Northwest 398 458 22,700 1,560 Climbing Atlanta Center
01:52PM 35.9175 -81.3158 329° Northwest 393 452 24,100 1,020 Climbing Atlanta Center
01:53PM 35.9886 -81.4186 311° West 387 445 24,800 900 Climbing Atlanta Center
01:54PM 36.0494 -81.5372 302° West 399 459 26,000 1,200 Climbing Atlanta Center
01:55PM 36.1103 -81.6511 303° West 404 465 27,300 1,260 Climbing Atlanta Center
01:56PM 36.1728 -81.7650 304° West 414 476 28,600 1,200 Climbing Atlanta Center
01:57PM 36.2353 -81.8817 304° West 409 471 29,800 1,080 Climbing Atlanta Center
01:58PM 36.2936 -81.9961 302° West 409 471 30,800 1,020 Climbing Atlanta Center
01:59PM 36.3561 -82.1131 304° West 404 465 31,900 1,020 Climbing Atlanta Center
02:01PM 36.4775 -82.3403 304° West 396 456 34,000 660 Climbing Indianapolis Center
02:02PM 36.5400 -82.4581 303° West 404 465 34,000  Level Indianapolis Center
02:03PM 36.6042 -82.5825 303° West 422 486 34,000  Level Indianapolis Center
02:04PM 36.6703 -82.7094 303° West 432 497 34,000  Level Indianapolis Center
02:05PM 36.7358 -82.8361 303° West 431 496 34,000  Level Indianapolis Center
02:06PM 36.8028 -82.9639 303° West 431 496 34,000  Level Indianapolis Center
02:07PM 36.8692 -83.0914 303° West 429 494 34,000  Level Indianapolis Center
02:08PM 36.9336 -83.2161 303° West 423 487 34,000  Level Indianapolis Center
02:09PM 37.0061 -83.3575 303° West 413 475 34,000  Level Indianapolis Center
02:10PM 37.0678 -83.4783 303° West 410 472 34,000  Level Indianapolis Center
02:11PM 37.1294 -83.5994 303° West 410 472 34,000  Level Indianapolis Center
02:12PM 37.2058 -83.7103 311° West 417 480 34,000  Level Indianapolis Center
02:13PM 37.2694 -83.8333 303° West 422 486 34,000  Level Indianapolis Center
02:14PM 37.3264 -83.9592 300° West 415 478 34,000  Level Indianapolis Center
02:15PM 37.3869 -84.0819 302° West 414 476 34,000  Level Indianapolis Center
02:17PM 37.4836 -84.2064 314° West 423 487 34,000  Level Indianapolis Center
02:18PM 37.5703 -84.3142 315° West 433 498 34,000 -300 Level Indianapolis Center
02:19PM 37.6569 -84.4258 314° West 440 506 33,400 -900 Descending Indianapolis Center
02:20PM 37.7431 -84.5369 314° West 443 510 32,200 -1,200 Descending Indianapolis Center
02:21PM 37.8278 -84.6414 316° Northwest 428 493 31,000 -1,200 Descending Indianapolis Center
02:22PM 37.9081 -84.7450 314° West 413 475 29,800 -1,200 Descending Indianapolis Center
02:23PM 37.9850 -84.8483 313° West 402 463 28,600 -900 Descending Indianapolis Center
02:24PM 38.0781 -84.9650 315° West 401 461 28,000 -300 Descending Indianapolis Center
02:25PM 38.1583 -85.0692 314° West 409 471 28,000 -120 Level Indianapolis Center
02:26PM 38.2367 -85.1708 314° West 402 463 27,800 -660 Descending Indianapolis Center
02:27PM 38.3189 -85.2794 314° West 398 458 26,700 -1,080 Descending Indianapolis Center
02:28PM 38.3933 -85.3783 314° West 389 448 25,700 -1,080 Descending Indianapolis Center
02:29PM 38.4722 -85.4825 314° West 405 466 24,600 -1,200 Descending Indianapolis Center
02:30PM 38.5633 -85.5881 318° Northwest 410 472 23,300 -1,500 Descending Indianapolis Center
02:31PM 38.6611 -85.6175 347° North 409 471 21,500 -1,860 Descending Indianapolis Center
02:32PM 38.7717 -85.6456 349° North 407 468 19,500 -2,220 Descending Indianapolis Center
02:33PM 38.8983 -85.6769 349° North 392 451 17,000 -2,220 Descending Indianapolis Center
02:34PM 39.0008 -85.7033 349° North 380 437 15,000 -1,740 Descending Indianapolis Center
02:35PM 39.0994 -85.7286 349° North 367 422 13,500 -1,440 Descending Indianapolis Center
02:36PM 39.1917 -85.7444 352° North 341 392 12,100 -1,440 Descending Indianapolis Center
02:37PM 39.2808 -85.7608 352° North 328 377 10,600 -1,020 Descending Indianapolis Center
02:38PM 39.3631 -85.8264 328° Northwest 292 336 10,000 -300 Descending Indianapolis Center
02:39PM 39.4206 -85.8944 318° Northwest 284 327 10,000  Level Indianapolis Center
02:40PM 39.4781 -85.9636 317° Northwest 282 325 10,000 -540 Level Indianapolis Center
02:41PM 39.5356 -86.0311 318° Northwest 281 323 8,900 -1,140 Descending Indianapolis Center
02:42PM 39.5908 -86.0967 318° Northwest 274 315 7,700 -1,260 Descending Indianapolis Center
02:43PM 39.6542 -86.1472 328° Northwest 270 311 6,300 -1,560 Descending Indianapolis Center
02:44PM 39.7394 -86.1322 North 271 312 4,500 -1,140 Descending Indianapolis Center
02:45PM 39.7892 -86.1603 337° Northwest 250 288 4,000 -660 Descending Indianapolis Center
02:46PM 39.7678 -86.2194 245° Southwest 209 241 3,200 -1,380 Descending Indianapolis Center
02:47PM 39.7339 -86.2608 223° Southwest 179 206 1,200 -1,200 Descending Indianapolis Center
02:48PM 39.7058 -86.2972 225° Southwest 148 170 800 -240 Descending Indianapolis Center
02:49PM 39.7028 -86.3047 242° Southwest 72 83 800  Level Indianapolis Center
02:51PM 39.7064 -86.3003 43° Northeast 34 39 800  Level Indianapolis Center
02:52PM 39.7117 -86.2936 44° Northeast 24 28 800  Level Indianapolis Center
02:53PM 39.7156 -86.2911 26° Northeast 20 23 800  Level Indianapolis Center
02:54PM 39.7186 -86.2928 337° Northwest 16 18 800  Level Indianapolis Center
02:55PM 39.7172 -86.2967 245° Southwest 12 14 800  Level Indianapolis Center
02:56PM 39.7158 -86.2961 163° South 10 12 800  Level Indianapolis Center